^^
Station Historical Data
Daily Summary for February 9, 2017 Units:  English    Metric   Both
« Previous Day
Next Day »
Daily Weekly Monthly Yearly Custom
  High: Low: Average:
Temperature: 38.0 °F 15.9 °F 25.2 °F
Dew Point: 29.9 °F 3.3 °F 19.6 °F
Humidity: 96% 54% 80%
Wind Speed: 9.0mph 0.0mph 3.8mph
Wind Gust: 26.0mph - -
Wind- - West
Pressure: 30.08 in 29.55 in -
Precipitation: 0.00 in    
Historical Graphs
 
 
Tabular Data for February 9, 2017
Time Temperature Dew Point Pressure Wind Wind Speed Wind Gust Humidity Rainfall Rate (Hourly) Conditions
00:00 38.0 °F 29.8 °F 29.73 in NNW 1.0 mph 6.0 mph 72% 0.00 in RA
00:10 38.0 °F 29.7 °F 29.73 in Calm   3.0 mph 72% 0.00 in BKN
00:20 37.8 °F 29.9 °F 29.72 in Calm   3.0 mph 73% 0.00 in BKN
00:30 37.6 °F 29.1 °F 29.72 in Calm   3.0 mph 71% 0.00 in BKN
00:40 37.4 °F 28.9 °F 29.70 in Calm   5.0 mph 71% 0.00 in BKN
00:50 37.2 °F 29.0 °F 29.69 in Calm   4.0 mph 72% 0.00 in BKN
01:00 37.0 °F 28.5 °F 29.68 in Calm   3.0 mph 71% 0.00 in BKN
01:10 36.8 °F 28.3 °F 29.68 in North 1.0 mph 4.0 mph 71% 0.00 in BKN
01:20 36.6 °F 27.7 °F 29.68 in NNW 2.0 mph 6.0 mph 70% 0.00 in BKN
01:30 36.4 °F 27.9 °F 29.68 in North 1.0 mph 6.0 mph 71% 0.00 in BKN
01:40 36.2 °F 27.4 °F 29.69 in NNW 1.0 mph 6.0 mph 70% 0.00 in BKN
01:50 36.1 °F 27.6 °F 29.69 in Calm   3.0 mph 71% 0.00 in BKN
02:00 35.9 °F 27.4 °F 29.68 in NNW 1.0 mph 3.0 mph 71% 0.00 in BKN
02:10 35.7 °F 27.2 °F 29.67 in NNW 1.0 mph 2.0 mph 71% 0.00 in OVC
02:20 35.5 °F 27.4 °F 29.67 in North 2.0 mph 6.0 mph 72% 0.00 in OVC
02:30 35.3 °F 26.8 °F 29.67 in NW 1.0 mph 6.0 mph 71% 0.00 in OVC
02:40 35.1 °F 27.0 °F 29.65 in NNW 1.0 mph 5.0 mph 72% 0.00 in OVC
02:50 34.9 °F 26.8 °F 29.63 in NW 1.0 mph 6.0 mph 72% 0.00 in OVC
03:00 34.7 °F 26.3 °F 29.64 in North 1.0 mph 7.0 mph 71% 0.00 in OVC
03:10 34.5 °F 26.1 °F 29.63 in NNW 2.0 mph 7.0 mph 71% 0.00 in BKN
03:20 34.2 °F 25.8 °F 29.63 in NNW 1.0 mph 7.0 mph 71% 0.00 in BKN
03:30 33.8 °F 24.4 °F 29.64 in NW 1.0 mph 12.0 mph 68% 0.00 in BKN
03:40 33.7 °F 23.9 °F 29.65 in North 3.0 mph 9.0 mph 67% 0.00 in BKN
03:50 33.6 °F 24.1 °F 29.63 in NNE 6.0 mph 13.0 mph 68% 0.00 in BKN
04:00 32.9 °F 24.8 °F 29.63 in NW 5.0 mph 18.0 mph 72% 0.00 in BKN
04:10 32.3 °F 24.6 °F 29.62 in NNW 3.0 mph 12.0 mph 73% 0.00 in -SN
04:20 31.8 °F 24.5 °F 29.63 in NNW 3.0 mph 12.0 mph 74% 0.00 in -SN
04:30 31.3 °F 24.3 °F 29.65 in NNW 3.0 mph 7.0 mph 75% 0.00 in -SN
04:40 30.5 °F 25.0 °F 29.66 in North 2.0 mph 9.0 mph 80% 0.00 in -SN
04:50 29.1 °F 25.4 °F 29.65 in NNE 3.0 mph 12.0 mph 86% 0.00 in -SN
05:00 28.3 °F 25.7 °F 29.63 in NNW 1.0 mph 7.0 mph 90% 0.00 in -SN
05:10 28.0 °F 25.7 °F 29.64 in NNW 3.0 mph 7.0 mph 91% 0.00 in +SN
05:20 27.8 °F 25.8 °F 29.63 in NNW 1.0 mph 8.0 mph 92% 0.00 in +SN
05:30 27.7 °F 25.9 °F 29.62 in NW 1.0 mph 8.0 mph 93% 0.00 in +SN
05:40 27.5 °F 25.8 °F 29.61 in NNW 2.0 mph 8.0 mph 93% 0.00 in +SN
05:50 27.5 °F 25.7 °F 29.62 in NNW 3.0 mph 9.0 mph 93% 0.00 in +SN
06:00 27.6 °F 26.1 °F 29.64 in North 3.0 mph 12.0 mph 94% 0.00 in +SN
06:10 27.6 °F 26.1 °F 29.63 in North 2.0 mph 13.0 mph 94% 0.00 in -SN
06:20 27.5 °F 26.0 °F 29.62 in NW 3.0 mph 12.0 mph 94% 0.00 in -SN
06:30 27.0 °F 25.5 °F 29.62 in NNW 7.0 mph 15.0 mph 94% 0.00 in -SN
06:40 26.7 °F 25.2 °F 29.62 in NNW 3.0 mph 13.0 mph 94% 0.00 in -SN
06:50 26.6 °F 25.1 °F 29.61 in North 6.0 mph 13.0 mph 94% 0.00 in -SN
07:00 26.6 °F 25.1 °F 29.61 in NNW 3.0 mph 14.0 mph 94% 0.00 in -SN
07:10 26.6 °F 25.3 °F 29.60 in NNW 3.0 mph 12.0 mph 95% 0.00 in CLR
07:20 26.6 °F 25.4 °F 29.60 in NNW 2.0 mph 10.0 mph 95% 0.00 in CLR
07:30 26.7 °F 25.5 °F 29.60 in NNW 3.0 mph 10.0 mph 95% 0.00 in CLR
07:40 26.9 °F 25.7 °F 29.60 in NNW 2.0 mph 9.0 mph 95% 0.00 in CLR
07:50 27.1 °F 25.9 °F 29.60 in NNW 3.0 mph 8.0 mph 95% 0.00 in CLR
08:00 27.4 °F 26.2 °F 29.59 in NNW 7.0 mph 13.0 mph 95% 0.00 in CLR
08:10 27.7 °F 26.5 °F 29.59 in NNW 2.0 mph 13.0 mph 95% 0.00 in +SN
08:20 28.1 °F 27.1 °F 29.59 in NNW 3.0 mph 12.0 mph 96% 0.00 in +SN
08:30 27.9 °F 26.7 °F 29.58 in North 5.0 mph 8.0 mph 95% 0.00 in +SN
08:40 27.2 °F 25.9 °F 29.58 in North 6.0 mph 14.0 mph 95% 0.00 in +SN
08:50 26.7 °F 25.5 °F 29.58 in NNW 3.0 mph 12.0 mph 95% 0.00 in +SN
09:00 26.4 °F 25.2 °F 29.58 in NNE 3.0 mph 12.0 mph 95% 0.00 in +SN
09:10 26.1 °F 24.9 °F 29.58 in North 3.0 mph 16.0 mph 95% 0.00 in +SN
09:20 25.8 °F 24.6 °F 29.57 in NNW 5.0 mph 16.0 mph 95% 0.00 in +SN
09:30 25.7 °F 24.4 °F 29.57 in NNW 5.0 mph 15.0 mph 95% 0.00 in +SN
09:40 25.6 °F 24.4 °F 29.57 in NNW 6.0 mph 17.0 mph 95% 0.00 in +SN
09:50 25.4 °F 24.2 °F 29.57 in NW 6.0 mph 19.0 mph 95% 0.00 in +SN
10:00 25.3 °F 24.1 °F 29.57 in NNW 6.0 mph 20.0 mph 95% 0.00 in +SN
10:10 25.1 °F 23.9 °F 29.57 in North 6.0 mph 15.0 mph 95% 0.00 in +SN
10:20 24.9 °F 23.7 °F 29.56 in North 5.0 mph 12.0 mph 95% 0.00 in +SN
10:30 24.8 °F 23.6 °F 29.58 in North 8.0 mph 18.0 mph 95% 0.00 in +SN
10:40 24.8 °F 23.6 °F 29.58 in North 6.0 mph 13.0 mph 95% 0.00 in +SN
10:50 24.7 °F 23.5 °F 29.58 in NNW 6.0 mph 18.0 mph 95% 0.00 in +SN
11:00 24.5 °F 23.3 °F 29.58 in North 8.0 mph 18.0 mph 95% 0.00 in +SN
11:10 24.5 °F 23.3 °F 29.58 in NNW 7.0 mph 17.0 mph 95% 0.00 in +SN
11:20 24.5 °F 23.3 °F 29.57 in NW 6.0 mph 21.0 mph 95% 0.00 in +SN
11:30 24.4 °F 23.2 °F 29.56 in NNW 7.0 mph 26.0 mph 95% 0.00 in +SN
11:40 24.3 °F 23.1 °F 29.56 in NNW 6.0 mph 19.0 mph 95% 0.00 in +SN
11:50 24.3 °F 23.1 °F 29.55 in NNW 2.0 mph 13.0 mph 95% 0.00 in +SN
12:00 24.3 °F 23.1 °F 29.55 in NNW 5.0 mph 13.0 mph 95% 0.00 in +SN
12:20 24.4 °F 23.2 °F 29.55 in NNW 5.0 mph 17.0 mph 95% 0.00 in +SN
12:30 24.5 °F 23.3 °F 29.55 in NNW 6.0 mph 14.0 mph 95% 0.00 in +SN
12:50 24.0 °F 22.5 °F 29.55 in North 6.0 mph 15.0 mph 94% 0.00 in +SN
13:00 24.0 °F 22.8 °F 29.55 in NNW 6.0 mph 16.0 mph 95% 0.00 in +SN
13:10 24.1 °F 22.9 °F 29.55 in NNW 5.0 mph 14.0 mph 95% 0.00 in +SN
13:20 24.1 °F 22.9 °F 29.56 in North 5.0 mph 20.0 mph 95% 0.00 in +SN
13:30 24.2 °F 23.0 °F 29.56 in North 6.0 mph 15.0 mph 95% 0.00 in +SN
13:40 24.1 °F 22.9 °F 29.57 in NNW 7.0 mph 23.0 mph 95% 0.00 in +SN
13:50 24.1 °F 22.9 °F 29.57 in NW 7.0 mph 14.0 mph 95% 0.00 in +SN
14:00 23.9 °F 22.7 °F 29.58 in North 6.0 mph 20.0 mph 95% 0.00 in +SN
14:30 22.4 °F 20.9 °F 29.61 in NE 5.0 mph 20.0 mph 94% 0.00 in -SN
14:40 22.4 °F 20.9 °F 29.62 in North 3.0 mph 17.0 mph 94% 0.00 in -SN
14:50 22.1 °F 20.6 °F 29.63 in NNW 2.0 mph 18.0 mph 94% 0.00 in -SN
15:00 21.8 °F 20.3 °F 29.64 in North 2.0 mph 12.0 mph 94% 0.00 in -SN
15:10 21.6 °F 20.1 °F 29.65 in NNW 5.0 mph 12.0 mph 94% 0.00 in -SN
15:20 21.1 °F 19.4 °F 29.65 in North 6.0 mph 12.0 mph 93% 0.00 in -SN
15:30 20.5 °F 18.8 °F 29.66 in NNE 6.0 mph 20.0 mph 93% 0.00 in -SN
15:40 20.4 °F 18.7 °F 29.67 in North 7.0 mph 18.0 mph 93% 0.00 in -SN
15:50 20.3 °F 18.3 °F 29.67 in North 7.0 mph 17.0 mph 92% 0.00 in -SN
16:00 20.5 °F 18.3 °F 29.67 in North 5.0 mph 20.0 mph 91% 0.00 in -SN
16:10 20.9 °F 18.7 °F 29.68 in North 3.0 mph 19.0 mph 91% 0.00 in -SN
16:20 21.0 °F 18.3 °F 29.68 in NNE 6.0 mph 18.0 mph 89% 0.00 in -SN
16:30 21.0 °F 18.3 °F 29.69 in North 5.0 mph 14.0 mph 89% 0.00 in -SN
16:40 20.9 °F 17.6 °F 29.70 in North 6.0 mph 17.0 mph 87% 0.00 in -SN
16:50 20.9 °F 17.4 °F 29.70 in NNW 6.0 mph 16.0 mph 86% 0.00 in -SN
17:00 21.2 °F 16.8 °F 29.71 in NW 8.0 mph 21.0 mph 83% 0.00 in -SN
17:10 21.2 °F 16.9 °F 29.72 in North 7.0 mph 21.0 mph 83% 0.00 in BKN
17:20 21.2 °F 16.2 °F 29.73 in NNW 3.0 mph 18.0 mph 81% 0.00 in BKN
17:30 21.1 °F 15.3 °F 29.73 in NNW 6.0 mph 22.0 mph 78% 0.00 in BKN
17:40 20.8 °F 14.7 °F 29.74 in ENE 3.0 mph 15.0 mph 77% 0.00 in BKN
18:00 20.0 °F 12.7 °F 29.77 in NNW 5.0 mph 20.0 mph 73% 0.00 in BKN
18:50 18.4 °F 7.2 °F 29.82 in NNW 9.0 mph 21.0 mph 61% 0.00 in BKN
19:10 18.4 °F 6.5 °F 29.84 in NNW 5.0 mph 22.0 mph 59% 0.00 in BKN
19:20 18.4 °F 5.6 °F 29.85 in NW 5.0 mph 14.0 mph 57% 0.00 in BKN
19:30 18.3 °F 5.6 °F 29.86 in North 7.0 mph 17.0 mph 57% 0.00 in BKN
19:40 18.1 °F 5.0 °F 29.87 in NE 6.0 mph 20.0 mph 56% 0.00 in BKN
19:50 17.9 °F 4.0 °F 29.88 in NNW 8.0 mph 20.0 mph 54% 0.00 in BKN
20:10 17.7 °F 4.3 °F 29.91 in NNW 7.0 mph 20.0 mph 55% 0.00 in CLR
20:20 17.5 °F 3.7 °F 29.91 in North 3.0 mph 13.0 mph 54% 0.00 in CLR
20:30 17.4 °F 4.4 °F 29.92 in NNE 3.0 mph 17.0 mph 56% 0.00 in CLR
20:40 17.3 °F 3.9 °F 29.93 in NNE 3.0 mph 13.0 mph 55% 0.00 in CLR
20:50 17.1 °F 3.7 °F 29.94 in North 5.0 mph 17.0 mph 55% 0.00 in CLR
21:00 17.0 °F 3.6 °F 29.95 in NW 3.0 mph 20.0 mph 55% 0.00 in CLR
21:10 16.9 °F 3.9 °F 29.96 in ENE 6.0 mph 14.0 mph 56% 0.00 in CLR
21:20 16.7 °F 3.7 °F 29.97 in North 2.0 mph 14.0 mph 56% 0.00 in CLR
21:30 16.7 °F 3.3 °F 29.98 in NNW 6.0 mph 18.0 mph 55% 0.00 in CLR
21:40 16.6 °F 4.0 °F 29.98 in NNE 3.0 mph 18.0 mph 57% 0.00 in CLR
21:50 16.5 °F 3.5 °F 30.00 in WNW 5.0 mph 20.0 mph 56% 0.00 in CLR
22:00 16.4 °F 3.4 °F 30.01 in NNW 2.0 mph 14.0 mph 56% 0.00 in CLR
22:10 16.4 °F 3.8 °F 30.01 in NNE 1.0 mph 12.0 mph 57% 0.00 in CLR
22:20 16.3 °F 3.8 °F 30.02 in NNE 1.0 mph 14.0 mph 57% 0.00 in CLR
22:30 16.3 °F 3.7 °F 30.02 in NW 2.0 mph 13.0 mph 57% 0.00 in CLR
22:40 16.2 °F 4.0 °F 30.03 in NW 1.0 mph 10.0 mph 58% 0.00 in CLR
22:50 16.1 °F 4.3 °F 30.03 in NNE 2.0 mph 13.0 mph 59% 0.00 in CLR
23:00 16.2 °F 4.0 °F 30.04 in NNW 1.0 mph 13.0 mph 58% 0.00 in CLR
23:10 16.2 °F 4.7 °F 30.04 in NW 6.0 mph 18.0 mph 60% 0.00 in CLR
23:20 16.3 °F 4.8 °F 30.05 in WSW 1.0 mph 14.0 mph 60% 0.00 in CLR
23:30 16.1 °F 5.0 °F 30.07 in South 3.0 mph 10.0 mph 61% 0.00 in CLR
23:40 16.0 °F 4.9 °F 30.08 in WSW 1.0 mph 9.0 mph 61% 0.00 in CLR
23:50 15.9 °F 5.2 °F 30.08 in SSW 2.0 mph 10.0 mph 62% 0.00 in CLR
TarryTown NY Weather
Compliments of Weather Underground - 1.75 mb